Time;durP1;ratioP1;P1;durP2;ratioP2;P2;SDS_P1;SDS_P2;PMS_P1;PMS_P2;Temp;Humidity;BMP_temperature;BMP_pressure;BME280_temperature;BME280_humidity;BME280_pressure;Samples;Min_cycle;Max_cycle;Signal;HPM_P1;HPM_P2
2021/12/25 00:00:38;;;;;;;11.35;5.90;;;;;;;6.63;100.00;100446.88;5005241;28;20120;-49
2021/12/25 00:03:06;;;;;;;7.95;6.13;;;;;;;6.63;100.00;100449.59;4993100;28;20050;-50
2021/12/25 00:05:33;;;;;;;8.77;6.15;;;;;;;6.62;100.00;100458.78;4992976;28;20046;-50
2021/12/25 00:08:01;;;;;;;9.10;5.72;;;;;;;6.64;100.00;100464.78;5009446;28;20380;-49
2021/12/25 00:10:32;;;;;;;9.00;5.82;;;;;;;6.64;100.00;100467.47;5011046;28;20049;-48
2021/12/25 00:13:00;;;;;;;7.47;5.93;;;;;;;6.53;100.00;100460.28;5012353;28;20108;-48
2021/12/25 00:15:28;;;;;;;7.65;5.15;;;;;;;6.43;100.00;100460.16;5012007;28;20046;-50
2021/12/25 00:17:56;;;;;;;6.78;5.28;;;;;;;6.45;100.00;100458.03;5012551;28;20070;-49
2021/12/25 00:20:23;;;;;;;8.07;5.65;;;;;;;6.49;100.00;100453.72;5012679;28;20042;-50
2021/12/25 00:22:51;;;;;;;8.13;5.40;;;;;;;6.48;100.00;100441.28;4994394;28;20497;-49
2021/12/25 00:25:20;;;;;;;7.97;5.60;;;;;;;6.47;100.00;100442.31;4991575;28;20492;-48
2021/12/25 00:30:25;;;;;;;7.00;5.22;;;;;;;6.52;100.00;100453.25;4997782;28;20508;-51
2021/12/25 00:32:58;;;;;;;7.50;5.53;;;;;;;6.56;100.00;100448.94;4996746;28;20038;-48
2021/12/25 00:35:26;;;;;;;7.60;5.65;;;;;;;6.58;100.00;100453.03;5011767;28;20045;-48
2021/12/25 00:37:54;;;;;;;8.68;5.85;;;;;;;6.61;100.00;100457.97;5026721;28;20053;-47
2021/12/25 00:40:22;;;;;;;8.68;6.22;;;;;;;6.60;100.00;100455.50;5014210;28;20504;-49
2021/12/25 00:42:50;;;;;;;7.97;5.80;;;;;;;6.45;100.00;100458.84;4996422;28;20054;-46
2021/12/25 00:45:18;;;;;;;9.00;6.70;;;;;;;6.36;100.00;100450.31;4996728;28;20038;-48
2021/12/25 00:47:45;;;;;;;9.80;7.20;;;;;;;6.20;100.00;100445.75;4996613;28;20056;-48
2021/12/25 00:50:13;;;;;;;9.30;7.03;;;;;;;6.16;100.00;100444.63;5001528;28;20108;-49
2021/12/25 00:52:41;;;;;;;8.57;7.07;;;;;;;6.10;100.00;100445.59;5015801;28;20519;-49
2021/12/25 00:55:09;;;;;;;8.60;6.93;;;;;;;6.06;100.00;100437.19;5015785;28;20050;-49
2021/12/25 00:57:38;;;;;;;9.40;6.70;;;;;;;5.98;100.00;100432.97;5010751;28;20042;-47
2021/12/25 01:00:10;;;;;;;9.82;7.03;;;;;;;5.95;100.00;100433.47;4996385;28;20038;-49
2021/12/25 01:02:40;;;;;;;9.10;7.13;;;;;;;5.97;100.00;100442.16;4996023;28;20416;-47
2021/12/25 01:05:08;;;;;;;9.80;7.63;;;;;;;6.02;100.00;100443.31;4996165;28;20130;-47
2021/12/25 01:07:37;;;;;;;10.57;7.72;;;;;;;5.96;100.00;100437.84;5004196;28;20043;-49
2021/12/25 01:10:09;;;;;;;9.02;7.07;;;;;;;6.03;100.00;100450.34;5011450;28;20085;-48
2021/12/25 01:13:04;;;;;;;8.13;6.63;;;;;;;6.13;100.00;100456.75;5008914;28;20050;-49
2021/12/25 01:16:05;;;;;;;8.93;7.32;;;;;;;6.10;100.00;100459.13;5014023;28;20054;-47
2021/12/25 01:29:23;;;;;;;8.30;6.07;;;;;;;6.09;100.00;100460.19;5014020;28;20046;-50
2021/12/25 01:37:42;;;;;;;8.65;6.97;;;;;;;6.09;100.00;100450.19;4997257;28;20136;-46
2021/12/25 01:49:32;;;;;;;11.23;8.00;;;;;;;5.75;100.00;100443.97;4996206;28;20394;-53
2021/12/25 01:52:00;;;;;;;9.68;7.55;;;;;;;5.84;100.00;100450.56;4996330;28;20046;-48
2021/12/25 01:54:28;;;;;;;7.38;5.65;;;;;;;5.78;100.00;100443.47;4997464;28;20046;-52
2021/12/25 01:56:56;;;;;;;9.38;7.70;;;;;;;5.70;100.00;100444.69;5011505;28;20503;-51
2021/12/25 01:59:23;;;;;;;9.07;7.07;;;;;;;5.50;100.00;100447.84;5016074;28;20123;-49
2021/12/25 02:01:51;;;;;;;8.65;6.90;;;;;;;5.55;100.00;100452.50;5015826;28;20085;-50
2021/12/25 02:04:23;;;;;;;9.27;6.13;;;;;;;5.57;100.00;100442.28;5014410;28;20519;-49
2021/12/25 02:06:51;;;;;;;8.05;6.25;;;;;;;5.65;100.00;100443.75;5031386;28;20053;-48
2021/12/25 02:09:19;;;;;;;8.55;5.65;;;;;;;5.71;100.00;100450.91;5032162;28;20052;-51
2021/12/25 02:11:49;;;;;;;7.63;5.22;;;;;;;5.77;100.00;100447.22;5015978;28;20077;-50
2021/12/25 02:14:21;;;;;;;8.48;5.43;;;;;;;5.63;100.00;100456.69;5003215;28;20042;-48
2021/12/25 02:16:59;;;;;;;6.63;4.90;;;;;;;5.61;100.00;100453.44;4977181;28;20109;-49
2021/12/25 02:19:44;;;;;;;6.65;5.18;;;;;;;5.53;100.00;100458.19;4974214;28;20047;-50
2021/12/25 02:22:12;;;;;;;6.57;4.90;;;;;;;5.58;100.00;100454.75;4983850;28;20408;-46
2021/12/25 02:24:40;;;;;;;6.28;4.25;;;;;;;5.53;100.00;100458.19;4993502;28;20042;-49
2021/12/25 02:27:08;;;;;;;6.70;4.90;;;;;;;5.56;100.00;100456.88;4982393;28;20109;-51
2021/12/25 02:29:36;;;;;;;7.10;5.30;;;;;;;5.49;100.00;100458.91;4992456;28;20050;-50
2021/12/25 02:32:05;;;;;;;6.40;4.78;;;;;;;5.47;100.00;100461.03;4992786;28;20493;-50
2021/12/25 02:34:36;;;;;;;8.10;5.60;;;;;;;5.41;99.85;100470.09;4990146;28;20047;-49
2021/12/25 02:37:04;;;;;;;8.32;5.95;;;;;;;5.43;99.52;100463.38;4990995;28;20478;-50
2021/12/25 02:39:36;;;;;;;8.15;6.28;;;;;;;5.45;99.55;100469.38;4957635;28;20039;-48
2021/12/25 02:42:04;;;;;;;8.40;6.50;;;;;;;5.46;100.00;100462.91;4990044;28;20050;-50
2021/12/25 02:44:32;;;;;;;8.38;6.22;;;;;;;5.51;99.89;100465.72;4974966;28;20097;-47
2021/12/25 02:47:09;;;;;;;7.93;5.95;;;;;;;5.41;98.56;100462.84;4975060;28;20189;-46
2021/12/25 02:49:37;;;;;;;8.88;6.07;;;;;;;5.39;99.70;100462.25;4973603;28;20409;-49
2021/12/25 02:52:06;;;;;;;7.95;5.88;;;;;;;5.33;98.56;100463.22;4974220;28;20046;-50
2021/12/25 02:54:35;;;;;;;8.20;5.60;;;;;;;5.22;98.13;100466.78;4973236;28;20114;-48
2021/12/25 02:57:03;;;;;;;8.13;5.40;;;;;;;5.11;97.86;100469.28;4982195;28;20050;-48
2021/12/25 02:59:31;;;;;;;8.90;6.22;;;;;;;5.02;98.52;100473.41;4993011;28;20042;-47
2021/12/25 03:02:13;;;;;;;6.97;5.22;;;;;;;4.83;99.14;100478.16;4993202;28;20148;-48
2021/12/25 03:04:43;;;;;;;7.28;5.65;;;;;;;4.84;98.73;100481.72;4989579;28;20047;-48
2021/12/25 03:07:12;;;;;;;9.20;5.97;;;;;;;4.87;99.78;100465.84;5003678;28;20081;-47
2021/12/25 03:09:41;;;;;;;8.00;6.03;;;;;;;4.79;98.28;100478.91;4999920;28;20402;-47
2021/12/25 03:12:13;;;;;;;8.77;6.53;;;;;;;4.74;98.70;100476.91;4992794;28;20070;-47
2021/12/25 03:15:03;;;;;;;7.28;6.07;;;;;;;4.86;97.69;100487.69;4992514;28;20046;-48
2021/12/25 03:17:33;;;;;;;8.13;6.43;;;;;;;4.97;97.32;100475.22;4993712;28;20133;-45
2021/12/25 03:20:01;;;;;;;9.38;7.25;;;;;;;5.00;95.48;100469.31;4993811;28;20046;-45
2021/12/25 03:22:29;;;;;;;7.82;6.10;;;;;;;5.00;96.39;100475.53;4993773;28;20050;-46
2021/12/25 03:24:56;;;;;;;7.65;6.00;;;;;;;5.01;96.12;100474.50;4992370;28;20050;-45
2021/12/25 03:27:24;;;;;;;8.50;6.80;;;;;;;5.04;96.14;100465.09;4993591;28;20050;-48
2021/12/25 03:29:52;;;;;;;8.32;6.70;;;;;;;5.03;95.36;100475.06;4992496;28;20052;-47
2021/12/25 03:32:20;;;;;;;8.93;6.70;;;;;;;5.05;96.57;100485.63;4993123;28;20053;-48
2021/12/25 03:34:47;;;;;;;8.05;6.07;;;;;;;5.05;95.96;100480.22;5013121;28;20054;-48
2021/12/25 03:37:15;;;;;;;9.68;7.38;;;;;;;4.92;94.88;100484.03;5011723;28;20046;-47
2021/12/25 03:39:42;;;;;;;9.20;7.22;;;;;;;4.83;97.38;100488.16;5011740;28;20427;-49
2021/12/25 03:42:10;;;;;;;9.10;7.35;;;;;;;4.94;96.39;100498.09;5011920;28;20437;-48
2021/12/25 03:44:38;;;;;;;9.70;7.57;;;;;;;4.83;94.54;100493.53;5012873;28;20042;-48
2021/12/25 03:47:23;;;;;;;8.10;6.50;;;;;;;4.77;95.39;100497.22;5008261;28;20055;-48
2021/12/25 03:53:10;;;;;;;10.43;8.18;;;;;;;4.73;94.49;100509.53;5000558;28;20388;-47
2021/12/25 03:58:24;;;;;;;9.38;7.90;;;;;;;4.64;94.66;100504.50;5013049;28;20049;-48
2021/12/25 04:00:59;;;;;;;11.05;8.80;;;;;;;4.59;93.44;100507.06;5011737;28;20042;-48
2021/12/25 04:03:42;;;;;;;9.35;7.38;;;;;;;4.48;93.93;100510.63;5017126;28;20092;-47
2021/12/25 04:06:10;;;;;;;8.25;6.03;;;;;;;4.44;95.69;100504.84;5016477;28;20145;-48
2021/12/25 04:08:43;;;;;;;8.85;7.18;;;;;;;4.44;93.71;100514.81;5018258;28;20046;-48
2021/12/25 04:11:24;;;;;;;8.98;7.32;;;;;;;4.48;93.51;100530.31;5002741;28;20060;-48
2021/12/25 04:13:52;;;;;;;9.32;7.43;;;;;;;4.28;93.88;100527.13;5015046;28;20518;-48
2021/12/25 04:16:22;;;;;;;8.52;7.15;;;;;;;4.22;95.69;100526.19;5007132;28;20039;-48
2021/12/25 04:18:49;;;;;;;10.07;7.85;;;;;;;4.43;94.67;100529.38;5014916;28;20058;-47
2021/12/25 04:21:18;;;;;;;10.07;8.50;;;;;;;4.36;93.26;100534.06;4998565;28;20054;-48
2021/12/25 04:23:46;;;;;;;10.73;9.30;;;;;;;4.10;93.45;100528.06;5014789;28;20092;-48
2021/12/25 04:26:14;;;;;;;10.60;8.82;;;;;;;4.06;95.70;100537.66;5018723;28;20030;-48
2021/12/25 04:28:48;;;;;;;11.98;9.40;;;;;;;4.10;94.94;100536.16;5014462;28;20034;-44
2021/12/25 05:04:36;;;;;;;8.27;6.63;;;;;;;3.90;94.60;100566.13;5015682;28;20123;-47
2021/12/25 05:07:27;;;;;;;10.38;8.68;;;;;;;4.05;94.30;100571.88;5016925;28;20084;-46
2021/12/25 05:09:57;;;;;;;15.07;8.48;;;;;;;4.05;93.80;100565.69;5017658;28;20042;-49
2021/12/25 05:12:24;;;;;;;9.77;7.28;;;;;;;3.65;93.54;100566.25;5017583;28;20114;-50
2021/12/25 05:14:52;;;;;;;9.23;7.43;;;;;;;3.46;95.56;100575.41;5013446;28;20129;-49
2021/12/25 05:17:19;;;;;;;10.13;7.93;;;;;;;3.48;94.74;100576.03;5021263;28;20499;-46
2021/12/25 05:19:48;;;;;;;9.05;7.47;;;;;;;3.50;94.70;100572.06;5014140;28;20049;-49
2021/12/25 05:22:17;;;;;;;10.27;7.88;;;;;;;3.39;94.28;100573.66;5014449;28;20045;-52
2021/12/25 05:24:45;;;;;;;8.88;6.90;;;;;;;3.52;95.57;100571.84;5013988;28;20064;-51
2021/12/25 05:27:14;;;;;;;8.98;6.95;;;;;;;3.42;93.56;100558.91;4995701;28;20053;-51
2021/12/25 05:29:46;;;;;;;5.07;4.20;;;;;;;3.56;94.89;100567.63;4994375;28;20520;-48
2021/12/25 05:32:20;;;;;;;8.65;6.50;;;;;;;3.61;93.57;100581.25;4994553;28;20472;-49
2021/12/25 05:35:13;;;;;;;8.60;6.72;;;;;;;3.70;92.43;100579.84;5013349;28;20416;-51
2021/12/25 05:38:19;;;;;;;;;;;;;;;3.66;93.34;100589.47;5033138;28;20042;-48
2021/12/25 05:41:05;;;;;;;8.55;6.90;;;;;;;3.52;94.20;100588.00;5016235;28;19928;-49
2021/12/25 05:43:33;;;;;;;9.65;7.45;;;;;;;3.39;95.04;100591.66;5032588;28;20057;-49
2021/12/25 05:46:00;;;;;;;9.77;7.47;;;;;;;3.37;95.34;100594.59;5015656;28;20475;-49
2021/12/25 05:48:35;;;;;;;10.85;7.70;;;;;;;3.31;95.64;100600.88;5015668;28;20488;-50
2021/12/25 05:51:06;;;;;;;9.43;7.40;;;;;;;3.32;96.42;100602.53;5032296;28;20072;-48
2021/12/25 05:53:46;;;;;;;10.68;7.38;;;;;;;3.20;95.81;100593.56;5032243;28;20057;-49
2021/12/25 05:56:48;;;;;;;9.05;6.05;;;;;;;3.16;96.92;100603.13;4991240;28;20129;-48
2021/12/25 05:59:42;;;;;;;10.23;7.13;;;;;;;3.06;96.61;100606.34;4978070;28;20076;-49
2021/12/25 06:02:23;;;;;;;10.02;7.10;;;;;;;3.06;96.83;100616.28;4973427;28;20093;-50
2021/12/25 06:04:52;;;;;;;10.35;6.70;;;;;;;2.95;97.04;100605.19;4973335;28;20160;-51
2021/12/25 06:07:19;;;;;;;9.77;6.43;;;;;;;3.01;96.93;100608.88;4958213;28;20133;-51
2021/12/25 06:09:47;;;;;;;10.13;7.07;;;;;;;3.00;97.04;100618.00;4964481;28;20051;-51
2021/12/25 06:12:16;;;;;;;9.23;6.38;;;;;;;3.01;96.48;100629.56;4957105;28;20051;-53
2021/12/25 06:14:45;;;;;;;17.07;6.50;;;;;;;2.89;97.07;100630.31;4266768;29;10000477;-51
2021/12/25 06:17:44;;;;;;;9.82;6.30;;;;;;;2.78;97.19;100626.47;4931717;28;20548;-51
2021/12/25 06:20:18;;;;;;;10.02;6.05;;;;;;;2.78;97.30;100620.28;4951617;29;20045;-47
2021/12/25 06:22:58;;;;;;;9.50;5.82;;;;;;;2.64;97.25;100626.81;4951961;29;20102;-52
2021/12/25 06:25:44;;;;;;;9.30;5.53;;;;;;;2.64;97.52;100632.19;4950707;28;20055;-49
2021/12/25 06:28:22;;;;;;;7.70;5.22;;;;;;;2.63;97.89;100631.38;4933640;29;20044;-50
2021/12/25 06:31:12;;;;;;;9.18;5.57;;;;;;;2.66;97.87;100632.81;4953486;28;20043;-51
2021/12/25 06:34:03;;;;;;;9.38;5.43;;;;;;;2.45;96.83;100632.13;4935476;28;20075;-49
2021/12/25 06:37:03;;;;;;;10.02;5.72;;;;;;;2.55;97.61;100639.75;4951440;29;20075;-48
2021/12/25 06:39:41;;;;;;;8.27;5.00;;;;;;;2.41;96.57;100641.72;4936428;29;20074;-48
2021/12/25 06:42:14;;;;;;;6.50;4.25;;;;;;;2.39;97.54;100638.41;4935326;29;20059;-48
2021/12/25 06:44:43;;;;;;;9.35;4.85;;;;;;;2.49;96.50;100649.50;4919572;29;20046;-48
2021/12/25 06:47:11;;;;;;;10.13;5.00;;;;;;;2.44;95.19;100649.31;4935341;29;20075;-48
2021/12/25 06:49:41;;;;;;;8.52;4.53;;;;;;;2.34;96.17;100644.44;4935931;29;20110;-50
2021/12/25 06:52:27;;;;;;;;;;;;;;;2.19;95.77;100653.84;4956147;28;20042;-45
2021/12/25 06:55:27;;;;;;;7.85;4.45;;;;;;;2.29;95.96;100655.03;4950840;29;19922;-48
2021/12/25 06:58:08;;;;;;;6.75;4.10;;;;;;;2.31;96.02;100662.88;4927909;29;20052;-50
2021/12/25 07:00:36;;;;;;;8.30;4.10;;;;;;;2.35;93.27;100666.75;4942010;29;20048;-48
2021/12/25 07:03:06;;;;;;;6.95;3.80;;;;;;;2.33;93.90;100658.09;4919266;29;20443;-49
2021/12/25 07:05:52;;;;;;;5.90;3.58;;;;;;;2.42;92.54;100662.16;4950699;29;20051;-53
2021/12/25 07:08:55;;;;;;;6.35;3.40;;;;;;;2.20;92.54;100666.25;4922348;29;20067;-48
2021/12/25 07:11:45;;;;;;;6.55;3.42;;;;;;;1.99;93.51;100676.28;4901830;28;20623;-48
2021/12/25 07:14:23;;;;;;;4.80;2.90;;;;;;;1.86;93.35;100671.81;4841310;29;20101;-48
2021/12/25 07:17:14;;;;;;;4.57;3.30;;;;;;;1.97;92.19;100683.72;4893539;29;20630;-44
2021/12/25 07:20:00;;;;;;;4.85;2.90;;;;;;;1.92;91.51;100697.84;4879030;29;20045;-49
2021/12/25 07:22:50;;;;;;;3.20;2.55;;;;;;;1.61;93.59;100690.53;4893699;29;20124;-49
2021/12/25 07:25:34;;;;;;;6.07;3.05;;;;;;;1.62;93.16;100700.22;4893461;29;20123;-49
2021/12/25 07:28:16;;;;;;;4.43;2.60;;;;;;;1.69;92.66;100697.50;4901129;29;20119;-49
2021/12/25 07:30:43;;;;;;;4.63;2.50;;;;;;;1.84;92.37;100698.06;4916188;29;20448;-50
2021/12/25 07:33:11;;;;;;;4.72;3.00;;;;;;;1.72;90.05;100702.44;4931383;29;20047;-52
2021/12/25 07:35:39;;;;;;;7.07;2.80;;;;;;;1.69;91.91;100702.88;4931095;29;20062;-52
2021/12/25 07:38:06;;;;;;;3.83;2.65;;;;;;;1.83;91.28;100709.03;4930817;29;20054;-52
2021/12/25 07:40:34;;;;;;;5.05;2.90;;;;;;;1.63;90.12;100699.16;4946385;29;20074;-51
2021/12/25 07:43:02;;;;;;;4.03;2.47;;;;;;;1.48;90.73;100707.47;4970721;28;20058;-51
2021/12/25 07:45:51;;;;;;;4.43;2.70;;;;;;;1.48;91.66;100712.84;4989115;28;20073;-48
2021/12/25 07:48:20;;;;;;;5.47;2.90;;;;;;;1.34;91.41;100715.78;4989567;28;20050;-48
2021/12/25 07:50:53;;;;;;;5.72;3.00;;;;;;;1.38;90.64;100722.38;4988697;28;20074;-49
2021/12/25 07:53:21;;;;;;;4.10;3.10;;;;;;;1.36;91.62;100724.47;4985814;28;20069;-48
2021/12/25 07:55:49;;;;;;;4.45;3.00;;;;;;;1.51;89.93;100716.97;4952472;28;20043;-47
2021/12/25 07:58:18;;;;;;;3.70;2.67;;;;;;;1.57;89.94;100720.69;4962528;28;20039;-49
2021/12/25 08:00:45;;;;;;;4.53;2.70;;;;;;;1.61;89.56;100721.91;4961551;28;20051;-48
2021/12/25 08:03:15;;;;;;;4.80;2.90;;;;;;;1.58;88.80;100728.53;4964705;28;20046;-44
2021/12/25 08:05:44;;;;;;;5.75;3.03;;;;;;;1.77;90.36;100720.63;4979318;28;20086;-46
2021/12/25 08:08:12;;;;;;;4.75;2.90;;;;;;;1.66;88.70;100720.25;5008485;28;20401;-48
2021/12/25 08:10:40;;;;;;;3.35;2.60;;;;;;;1.73;89.39;100736.31;4997897;28;20043;-48
2021/12/25 08:13:08;;;;;;;3.42;2.40;;;;;;;1.87;88.78;100732.53;4994922;28;20049;-47
2021/12/25 08:15:36;;;;;;;7.38;2.83;;;;;;;1.84;87.28;100737.53;4992650;28;20413;-48
2021/12/25 08:18:04;;;;;;;4.53;2.80;;;;;;;1.74;88.42;100737.16;4985829;28;20129;-49
2021/12/25 08:20:33;;;;;;;4.32;2.63;;;;;;;1.36;88.76;100744.06;4990974;28;20047;-47
2021/12/25 08:23:19;;;;;;;4.95;2.67;;;;;;;1.34;89.28;100737.25;5004806;28;20496;-48
2021/12/25 08:26:05;;;;;;;6.07;2.95;;;;;;;1.31;89.42;100743.06;5010753;28;20042;-46
2021/12/25 08:29:13;;;;;;;4.57;2.78;;;;;;;1.34;89.17;100748.81;5007817;28;20049;-48
2021/12/25 08:31:59;;;;;;;4.88;2.92;;;;;;;1.39;89.04;100748.19;4994581;28;20049;-45
2021/12/25 08:35:05;;;;;;;4.07;2.70;;;;;;;1.34;87.30;100748.00;4949448;29;20469;-48
2021/12/25 08:37:39;;;;;;;3.97;2.63;;;;;;;1.22;88.54;100761.22;4949761;29;20094;-46
2021/12/25 08:40:08;;;;;;;4.82;2.70;;;;;;;1.22;89.01;100762.03;4942984;29;20127;-47
2021/12/25 08:42:35;;;;;;;7.45;2.95;;;;;;;1.36;88.60;100773.59;4945749;29;20044;-49
2021/12/25 08:45:05;;;;;;;4.82;2.97;;;;;;;1.31;88.13;100769.88;4931915;29;20060;-48
2021/12/25 08:47:36;;;;;;;5.93;3.15;;;;;;;1.49;88.09;100776.28;4915499;29;20124;-51
2021/12/25 08:50:07;;;;;;;5.13;3.08;;;;;;;1.45;87.93;100776.91;4933841;29;20050;-44
2021/12/25 08:52:35;;;;;;;5.30;3.10;;;;;;;1.61;87.18;100781.81;4952842;28;20078;-47
2021/12/25 08:55:04;;;;;;;4.45;2.88;;;;;;;1.46;86.54;100776.66;4936072;29;20047;-46
2021/12/25 08:57:31;;;;;;;7.60;3.10;;;;;;;1.30;86.69;100771.75;4934855;28;20503;-50
2021/12/25 08:59:59;;;;;;;10.07;3.45;;;;;;;1.25;87.82;100777.75;4941453;29;20090;-51
2021/12/25 09:02:27;;;;;;;5.55;3.30;;;;;;;1.21;88.13;100787.22;4952694;29;20043;-52
2021/12/25 09:04:55;;;;;;;4.53;3.15;;;;;;;1.05;87.89;100793.00;4955908;28;20066;-50
2021/12/25 09:07:22;;;;;;;8.10;3.30;;;;;;;0.89;87.94;100798.78;4994239;28;20058;-47
2021/12/25 09:09:51;;;;;;;6.03;2.92;;;;;;;1.00;87.96;100790.94;5008384;28;20041;-48
2021/12/25 09:12:21;;;;;;;4.75;2.85;;;;;;;0.91;88.76;100799.41;4995212;28;20049;-49
2021/12/25 09:14:48;;;;;;;5.95;3.30;;;;;;;0.69;89.03;100802.25;4994053;28;20050;-48
2021/12/25 09:17:16;;;;;;;5.97;3.35;;;;;;;0.79;88.93;100801.84;4995548;28;20046;-49
2021/12/25 09:19:44;;;;;;;6.85;3.30;;;;;;;0.71;88.74;100804.75;4993676;28;20073;-47
2021/12/25 09:22:12;;;;;;;5.35;3.00;;;;;;;0.63;88.46;100800.41;4993520;28;20041;-49
2021/12/25 09:24:40;;;;;;;3.72;3.00;;;;;;;0.74;88.76;100802.47;4997068;28;20046;-48
2021/12/25 09:27:08;;;;;;;5.25;2.90;;;;;;;0.76;88.47;100811.13;4997207;28;20532;-49
2021/12/25 09:29:38;;;;;;;6.10;3.10;;;;;;;0.73;89.37;100803.50;5013277;28;20053;-49
2021/12/25 09:32:06;;;;;;;7.82;3.80;;;;;;;0.84;87.83;100805.59;4984234;28;20069;-47
2021/12/25 09:34:33;;;;;;;5.20;3.25;;;;;;;0.59;88.07;100809.88;4994814;28;20425;-48
2021/12/25 09:37:01;;;;;;;7.90;3.50;;;;;;;0.67;88.90;100806.16;4994245;28;20034;-47
2021/12/25 09:39:29;;;;;;;5.70;3.40;;;;;;;0.77;87.32;100801.22;4992596;28;20056;-49
2021/12/25 09:41:56;;;;;;;4.80;3.33;;;;;;;0.57;89.05;100806.56;4996926;28;20042;-49
2021/12/25 09:44:24;;;;;;;4.63;3.10;;;;;;;0.77;88.82;100804.75;5005532;28;20411;-49
2021/12/25 09:46:52;;;;;;;6.75;3.53;;;;;;;0.77;86.83;100804.75;4997565;28;20092;-48
2021/12/25 09:49:19;;;;;;;5.32;3.22;;;;;;;0.81;87.83;100802.47;4993925;28;20038;-48
2021/12/25 09:51:48;;;;;;;6.68;3.55;;;;;;;0.68;87.60;100811.34;4999671;28;20038;-47
2021/12/25 09:54:18;;;;;;;4.38;3.10;;;;;;;0.84;87.53;100813.63;5012541;28;20046;-47
2021/12/25 09:56:49;;;;;;;5.65;3.08;;;;;;;0.55;87.70;100822.00;5006733;28;20042;-49
2021/12/25 09:59:16;;;;;;;4.35;3.10;;;;;;;0.51;89.28;100812.75;5007680;28;20090;-48
2021/12/25 10:01:53;;;;;;;5.68;3.22;;;;;;;0.70;87.57;100809.28;4994499;28;20057;-48
2021/12/25 10:04:40;;;;;;;5.85;3.22;;;;;;;0.71;87.02;100800.19;4993568;28;20038;-47
2021/12/25 10:07:27;;;;;;;5.20;3.03;;;;;;;0.74;86.45;100802.47;4993330;28;20077;-47
2021/12/25 10:10:07;;;;;;;5.15;2.88;;;;;;;0.82;87.22;100799.59;5004635;28;20057;-50
2021/12/25 10:12:44;;;;;;;8.50;3.20;;;;;;;0.87;85.97;100814.22;4993021;28;20118;-49
2021/12/25 10:15:18;;;;;;;4.47;3.10;;;;;;;0.50;86.44;100819.13;4992897;28;20501;-50
2021/12/25 10:17:45;;;;;;;6.72;3.30;;;;;;;0.42;87.54;100810.22;4999463;28;20049;-50
2021/12/25 10:20:16;;;;;;;6.18;3.10;;;;;;;0.50;87.51;100825.28;4996678;28;20034;-48
2021/12/25 10:23:13;;;;;;;4.47;2.90;;;;;;;0.65;86.75;100827.84;4995603;28;20049;-49
2021/12/25 10:25:48;;;;;;;5.80;3.17;;;;;;;0.64;85.64;100818.94;4993244;28;20054;-47
2021/12/25 10:28:19;;;;;;;6.20;2.88;;;;;;;0.33;85.81;100822.16;4994360;28;20042;-49
2021/12/25 10:31:09;;;;;;;5.53;2.78;;;;;;;0.31;86.11;100824.19;4995614;28;20054;-45
2021/12/25 10:33:44;;;;;;;6.90;3.10;;;;;;;0.45;86.40;100826.94;4999213;28;20049;-50
2021/12/25 10:36:23;;;;;;;5.05;2.75;;;;;;;0.51;85.81;100820.78;5013265;28;20057;-48
2021/12/25 10:39:16;;;;;;;6.93;2.92;;;;;;;0.47;84.96;100831.06;4996812;28;20041;-50
2021/12/25 10:41:56;;;;;;;7.90;3.00;;;;;;;0.52;85.89;100819.75;5010075;28;20056;-51
2021/12/25 10:44:26;;;;;;;5.85;2.78;;;;;;;0.57;85.73;100819.97;4997124;28;20046;-46
2021/12/25 10:47:01;;;;;;;5.65;2.90;;;;;;;0.66;85.07;100832.16;5013773;28;20046;-50
2021/12/25 10:49:49;;;;;;;4.10;2.58;;;;;;;0.70;83.98;100817.31;4996435;28;20045;-49
2021/12/25 10:52:30;;;;;;;4.00;2.42;;;;;;;0.75;83.87;100820.22;5011148;28;20034;-50
2021/12/25 10:55:24;;;;;;;4.90;2.50;;;;;;;0.62;84.46;100818.31;4999609;28;20054;-49
2021/12/25 10:57:59;;;;;;;3.22;2.35;;;;;;;0.79;83.90;100820.63;5001871;28;20046;-50
2021/12/25 11:00:32;;;;;;;2.95;2.38;;;;;;;0.79;83.99;100820.63;5003617;28;20137;-50
2021/12/25 11:03:04;;;;;;;4.97;2.13;;;;;;;0.71;83.54;100818.97;5000104;28;20080;-50
2021/12/25 11:05:37;;;;;;;3.22;2.40;;;;;;;0.65;83.56;100827.84;5000223;28;20050;-47
2021/12/25 11:08:15;;;;;;;4.72;2.60;;;;;;;0.70;83.59;100832.56;5008577;28;20370;-50
2021/12/25 11:10:53;;;;;;;5.63;2.70;;;;;;;0.63;84.25;100821.84;5007728;28;20066;-47
2021/12/25 11:13:24;;;;;;;3.88;2.40;;;;;;;0.74;84.62;100821.22;4993017;28;20125;-50
2021/12/25 11:16:03;;;;;;;10.02;4.00;;;;;;;0.82;82.57;100813.00;4993580;28;20129;-51
2021/12/25 11:18:48;;;;;;;4.70;2.50;;;;;;;0.83;83.02;100814.66;5003469;28;20049;-49
2021/12/25 11:21:18;;;;;;;15.70;6.03;;;;;;;0.74;81.91;100813.19;5008998;28;20053;-52
2021/12/25 11:23:49;;;;;;;123.40;38.50;;;;;;;0.83;82.46;100811.16;5007660;28;20046;-50
2021/12/25 11:26:16;;;;;;;26.83;8.77;;;;;;;0.97;81.45;100807.47;5012423;28;20042;-50
2021/12/25 11:28:44;;;;;;;8.55;3.53;;;;;;;0.97;80.70;100814.69;5001967;28;20451;-52
2021/12/25 11:31:12;;;;;;;5.40;2.78;;;;;;;0.93;81.50;100816.13;5012856;28;20428;-48
2021/12/25 11:33:39;;;;;;;23.55;8.65;;;;;;;1.05;81.51;100819.84;5010654;28;20480;-51
2021/12/25 11:36:07;;;;;;;47.15;15.00;;;;;;;1.21;81.92;100821.31;4997747;28;20501;-46
2021/12/25 11:38:35;;;;;;;28.00;10.50;;;;;;;1.26;80.79;100816.97;4992702;28;20042;-49
2021/12/25 11:41:07;;;;;;;19.08;7.60;;;;;;;1.16;80.33;100813.88;5009480;28;20046;-47
2021/12/25 11:43:41;;;;;;;5.53;2.78;;;;;;;1.14;79.56;100818.59;4997804;28;20048;-50
2021/12/25 11:46:09;;;;;;;13.13;4.65;;;;;;;1.00;80.46;100825.81;5011097;28;20045;-51
2021/12/25 11:48:38;;;;;;;14.38;5.60;;;;;;;1.09;81.12;100815.72;5000771;28;20133;-49
2021/12/25 11:51:07;;;;;;;23.60;8.43;;;;;;;1.23;80.34;100817.38;5009292;28;20045;-49
2021/12/25 11:53:54;;;;;;;24.80;8.43;;;;;;;1.04;79.40;100824.38;5004012;28;20038;-45
2021/12/25 11:58:54;;;;;;;47.63;16.88;;;;;;;1.04;80.47;100828.94;4311742;28;10000829;-48
2021/12/25 12:01:27;;;;;;;41.38;12.50;;;;;;;1.11;79.44;100819.03;5009271;28;20096;-47
2021/12/25 12:04:10;;;;;;;5.97;2.83;;;;;;;1.20;79.56;100820.47;5010770;28;20595;-43
2021/12/25 12:06:46;;;;;;;6.07;3.00;;;;;;;1.18;78.18;100819.00;5010606;28;20061;-49
2021/12/25 12:09:29;;;;;;;27.30;9.57;;;;;;;1.14;77.82;100812.41;4989417;28;20046;-49
2021/12/25 12:12:27;;;;;;;11.85;4.82;;;;;;;1.30;78.18;100797.75;4991324;28;20047;-48
2021/12/25 12:15:11;;;;;;;22.45;7.90;;;;;;;1.24;78.16;100800.22;4991099;28;20046;-49
2021/12/25 12:17:58;;;;;;;31.35;11.45;;;;;;;1.21;78.52;100803.34;4991353;28;20153;-50
2021/12/25 12:20:41;;;;;;;14.13;5.85;;;;;;;1.28;77.08;100798.78;4989881;28;20061;-47
2021/12/25 12:23:37;;;;;;;30.70;11.05;;;;;;;1.35;78.17;100797.94;4992415;28;20050;-48
2021/12/25 12:26:10;;;;;;;6.63;3.10;;;;;;;1.37;76.70;100795.88;4993727;28;20473;-48
2021/12/25 12:28:52;;;;;;;5.20;2.42;;;;;;;1.27;76.85;100793.63;5007876;28;20034;-47
2021/12/25 12:31:41;;;;;;;6.53;2.80;;;;;;;1.21;76.86;100810.56;5014771;28;20455;-48
2021/12/25 12:34:41;;;;;;;7.03;3.35;;;;;;;1.17;76.48;100810.13;5014288;28;20050;-48
2021/12/25 12:37:14;;;;;;;23.00;8.35;;;;;;;1.02;75.76;100815.72;4995488;28;20042;-47
2021/12/25 12:39:44;;;;;;;22.98;7.78;;;;;;;1.09;76.09;100810.34;5004075;28;20046;-48
2021/12/25 12:42:13;;;;;;;7.20;3.92;;;;;;;1.09;75.43;100805.00;4992228;28;20077;-47
2021/12/25 12:45:13;;;;;;;9.73;2.78;;;;;;;1.10;75.79;100800.44;4975997;28;20441;-50
2021/12/25 12:47:41;;;;;;;5.95;2.80;;;;;;;1.17;75.98;100791.34;4995187;28;20449;-48
2021/12/25 12:50:11;;;;;;;50.33;18.88;;;;;;;1.38;78.40;100786.81;4989474;28;20034;-47
2021/12/25 12:52:41;;;;;;;29.67;10.02;;;;;;;1.54;75.54;100782.84;4991954;28;20057;-48
2021/12/25 12:55:14;;;;;;;10.00;4.50;;;;;;;1.47;75.42;100783.69;4991766;28;20050;-45
2021/12/25 12:57:44;;;;;;;45.83;15.02;;;;;;;1.42;75.00;100778.13;4988968;28;20046;-50
2021/12/25 13:00:19;;;;;;;11.55;4.82;;;;;;;1.47;75.49;100778.34;4994829;28;20045;-48
2021/12/25 13:02:52;;;;;;;3.13;2.05;;;;;;;1.47;75.44;100780.19;5011436;28;20169;-44
2021/12/25 13:05:33;;;;;;;3.13;2.15;;;;;;;1.39;75.20;100783.09;4995241;28;20045;-48
2021/12/25 13:08:13;;;;;;;3.17;1.90;;;;;;;1.34;75.08;100786.38;4991961;28;20050;-49
2021/12/25 13:13:40;;;;;;;14.00;4.32;;;;;;;1.36;75.29;100783.50;4933838;29;20058;-48